sensor_id;sensor_type;location;lat;lon;timestamp;pressure;altitude;pressure_sealevel;temperature;humidity
84667;BME280;74896;42.518;23.712;2024-03-06T00:01:42;91879.09;;;0.65;94.28
84667;BME280;74896;42.518;23.712;2024-03-06T00:04:07;91887.72;;;0.64;94.06
84667;BME280;74896;42.518;23.712;2024-03-06T00:06:32;91886.44;;;0.75;93.75
84667;BME280;74896;42.518;23.712;2024-03-06T00:08:58;91882.78;;;0.63;93.85
84667;BME280;74896;42.518;23.712;2024-03-06T00:11:24;91884.81;;;0.89;94.25
84667;BME280;74896;42.518;23.712;2024-03-06T00:13:50;91888.56;;;0.93;94.47
84667;BME280;74896;42.518;23.712;2024-03-06T00:16:16;91887.16;;;0.90;94.69
84667;BME280;74896;42.518;23.712;2024-03-06T00:18:41;91883.34;;;1.01;95.32
84667;BME280;74896;42.518;23.712;2024-03-06T00:21:07;91887.75;;;1.13;95.47
84667;BME280;74896;42.518;23.712;2024-03-06T00:23:32;91887.78;;;1.41;94.19
84667;BME280;74896;42.518;23.712;2024-03-06T00:25:58;91882.03;;;1.60;95.06
84667;BME280;74896;42.518;23.712;2024-03-06T00:28:23;91884.38;;;1.62;95.24
84667;BME280;74896;42.518;23.712;2024-03-06T00:30:49;91889.91;;;1.59;95.20
84667;BME280;74896;42.518;23.712;2024-03-06T00:33:14;91887.16;;;1.60;95.79
84667;BME280;74896;42.518;23.712;2024-03-06T00:35:40;91890.09;;;1.64;95.16
84667;BME280;74896;42.518;23.712;2024-03-06T00:38:05;91887.09;;;1.54;95.63
84667;BME280;74896;42.518;23.712;2024-03-06T00:40:31;91880.63;;;1.58;95.90
84667;BME280;74896;42.518;23.712;2024-03-06T00:42:57;91886.13;;;1.55;95.79
84667;BME280;74896;42.518;23.712;2024-03-06T00:45:23;91885.00;;;1.64;95.71
84667;BME280;74896;42.518;23.712;2024-03-06T00:47:49;91881.09;;;1.68;96.25
84667;BME280;74896;42.518;23.712;2024-03-06T00:50:14;91888.25;;;1.79;96.29
84667;BME280;74896;42.518;23.712;2024-03-06T00:52:41;91894.22;;;1.92;96.26
84667;BME280;74896;42.518;23.712;2024-03-06T00:55:08;91898.59;;;2.05;96.16
84667;BME280;74896;42.518;23.712;2024-03-06T00:57:33;91901.78;;;2.07;95.16
84667;BME280;74896;42.518;23.712;2024-03-06T00:59:59;91893.50;;;2.05;95.62
84667;BME280;74896;42.518;23.712;2024-03-06T01:02:24;91887.78;;;2.03;95.81
84667;BME280;74896;42.518;23.712;2024-03-06T01:04:50;91889.00;;;2.07;95.92
84667;BME280;74896;42.518;23.712;2024-03-06T01:07:15;91887.22;;;2.07;95.46
84667;BME280;74896;42.518;23.712;2024-03-06T01:09:41;91890.34;;;2.03;95.56
84667;BME280;74896;42.518;23.712;2024-03-06T01:12:06;91890.56;;;2.08;96.18
84667;BME280;74896;42.518;23.712;2024-03-06T01:14:32;91887.84;;;2.09;96.33
84667;BME280;74896;42.518;23.712;2024-03-06T01:16:57;91886.06;;;2.17;95.83
84667;BME280;74896;42.518;23.712;2024-03-06T01:19:23;91895.13;;;2.19;95.76
84667;BME280;74896;42.518;23.712;2024-03-06T01:21:48;91896.13;;;2.18;95.93
84667;BME280;74896;42.518;23.712;2024-03-06T01:24:14;91901.84;;;2.20;96.05
84667;BME280;74896;42.518;23.712;2024-03-06T01:26:39;91902.22;;;2.17;95.71
84667;BME280;74896;42.518;23.712;2024-03-06T01:29:08;91906.19;;;2.26;95.73
84667;BME280;74896;42.518;23.712;2024-03-06T01:31:33;91899.47;;;2.19;95.47
84667;BME280;74896;42.518;23.712;2024-03-06T01:33:58;91903.47;;;2.28;95.18
84667;BME280;74896;42.518;23.712;2024-03-06T01:36:24;91906.78;;;2.28;94.63
84667;BME280;74896;42.518;23.712;2024-03-06T01:38:49;91900.16;;;2.40;94.11
84667;BME280;74896;42.518;23.712;2024-03-06T01:41:15;91906.78;;;2.28;93.98
84667;BME280;74896;42.518;23.712;2024-03-06T01:43:40;91913.22;;;2.11;94.18
84667;BME280;74896;42.518;23.712;2024-03-06T01:46:06;91914.97;;;2.10;93.69
84667;BME280;74896;42.518;23.712;2024-03-06T01:48:32;91916.13;;;2.08;93.23
84667;BME280;74896;42.518;23.712;2024-03-06T01:51:02;91913.72;;;1.93;92.70
84667;BME280;74896;42.518;23.712;2024-03-06T01:53:32;91911.25;;;1.79;92.44
84667;BME280;74896;42.518;23.712;2024-03-06T01:55:58;91915.00;;;1.55;92.93
84667;BME280;74896;42.518;23.712;2024-03-06T01:58:25;91905.84;;;1.39;93.71
84667;BME280;74896;42.518;23.712;2024-03-06T02:00:51;91907.03;;;1.37;93.39
84667;BME280;74896;42.518;23.712;2024-03-06T02:03:18;91911.63;;;1.48;93.50
84667;BME280;74896;42.518;23.712;2024-03-06T02:05:48;91912.13;;;1.65;93.26
84667;BME280;74896;42.518;23.712;2024-03-06T02:08:13;91915.28;;;1.67;94.00
84667;BME280;74896;42.518;23.712;2024-03-06T02:10:39;91912.59;;;1.47;93.67
84667;BME280;74896;42.518;23.712;2024-03-06T02:13:04;91913.09;;;1.36;94.49
84667;BME280;74896;42.518;23.712;2024-03-06T02:15:30;91912.31;;;1.35;93.95
84667;BME280;74896;42.518;23.712;2024-03-06T02:17:55;91912.88;;;1.31;93.65
84667;BME280;74896;42.518;23.712;2024-03-06T02:20:23;91918.78;;;1.10;93.92
84667;BME280;74896;42.518;23.712;2024-03-06T02:22:48;91916.09;;;0.97;94.13
84667;BME280;74896;42.518;23.712;2024-03-06T02:25:14;91923.38;;;0.79;94.82
84667;BME280;74896;42.518;23.712;2024-03-06T02:27:40;91919.25;;;0.78;95.29
84667;BME280;74896;42.518;23.712;2024-03-06T02:30:06;91921.19;;;0.76;95.44
84667;BME280;74896;42.518;23.712;2024-03-06T02:32:31;91916.13;;;0.61;95.22
84667;BME280;74896;42.518;23.712;2024-03-06T02:34:57;91920.31;;;0.48;96.12
84667;BME280;74896;42.518;23.712;2024-03-06T02:37:22;91914.63;;;0.31;95.75
84667;BME280;74896;42.518;23.712;2024-03-06T02:39:49;91919.03;;;0.23;96.20
84667;BME280;74896;42.518;23.712;2024-03-06T02:42:15;91914.22;;;0.13;96.04
84667;BME280;74896;42.518;23.712;2024-03-06T02:44:42;91916.69;;;0.07;96.36
84667;BME280;74896;42.518;23.712;2024-03-06T02:47:08;91920.28;;;-0.03;96.02
84667;BME280;74896;42.518;23.712;2024-03-06T02:49:33;91916.50;;;0.08;96.01
84667;BME280;74896;42.518;23.712;2024-03-06T02:51:59;91918.84;;;0.10;96.47
84667;BME280;74896;42.518;23.712;2024-03-06T02:54:26;91917.63;;;0.06;96.28
84667;BME280;74896;42.518;23.712;2024-03-06T02:56:51;91916.41;;;0.16;95.98
84667;BME280;74896;42.518;23.712;2024-03-06T02:59:17;91909.06;;;0.28;96.16
84667;BME280;74896;42.518;23.712;2024-03-06T03:01:43;91909.09;;;0.63;96.07
84667;BME280;74896;42.518;23.712;2024-03-06T03:04:10;91905.78;;;1.05;97.15
84667;BME280;74896;42.518;23.712;2024-03-06T03:06:35;91906.97;;;1.30;97.41
84667;BME280;74896;42.518;23.712;2024-03-06T03:09:01;91908.50;;;1.53;97.74
84667;BME280;74896;42.518;23.712;2024-03-06T03:11:26;91916.03;;;1.61;97.28
84667;BME280;74896;42.518;23.712;2024-03-06T03:13:52;91914.00;;;1.50;96.71
84667;BME280;74896;42.518;23.712;2024-03-06T03:16:18;91916.19;;;1.31;96.38
84667;BME280;74896;42.518;23.712;2024-03-06T03:18:44;91913.19;;;1.21;96.18
84667;BME280;74896;42.518;23.712;2024-03-06T03:21:10;91921.69;;;1.07;95.67
84667;BME280;74896;42.518;23.712;2024-03-06T03:23:37;91917.50;;;1.00;95.52
84667;BME280;74896;42.518;23.712;2024-03-06T03:26:02;91921.34;;;0.89;95.42
84667;BME280;74896;42.518;23.712;2024-03-06T03:28:29;91919.63;;;0.75;95.08
84667;BME280;74896;42.518;23.712;2024-03-06T03:30:55;91926.22;;;0.69;94.74
84667;BME280;74896;42.518;23.712;2024-03-06T03:33:21;91921.25;;;0.61;94.85
84667;BME280;74896;42.518;23.712;2024-03-06T03:35:47;91925.75;;;0.59;94.92
84667;BME280;74896;42.518;23.712;2024-03-06T03:38:13;91922.66;;;0.64;95.06
84667;BME280;74896;42.518;23.712;2024-03-06T03:40:38;91920.59;;;0.95;95.45
84667;BME280;74896;42.518;23.712;2024-03-06T03:43:04;91920.28;;;1.05;95.11
84667;BME280;74896;42.518;23.712;2024-03-06T03:45:35;91921.59;;;1.43;95.10
84667;BME280;74896;42.518;23.712;2024-03-06T03:48:01;91918.13;;;1.51;94.43
84667;BME280;74896;42.518;23.712;2024-03-06T03:50:28;91925.97;;;1.49;94.09
84667;BME280;74896;42.518;23.712;2024-03-06T03:52:55;91924.91;;;1.37;94.51
84667;BME280;74896;42.518;23.712;2024-03-06T03:55:25;91931.88;;;1.50;94.59
84667;BME280;74896;42.518;23.712;2024-03-06T03:57:51;91933.13;;;1.32;94.48
84667;BME280;74896;42.518;23.712;2024-03-06T04:00:17;91938.66;;;1.15;94.61
84667;BME280;74896;42.518;23.712;2024-03-06T04:02:43;91935.31;;;1.14;94.16
84667;BME280;74896;42.518;23.712;2024-03-06T04:05:08;91930.94;;;0.87;94.30
84667;BME280;74896;42.518;23.712;2024-03-06T04:07:35;91933.94;;;0.76;94.56
84667;BME280;74896;42.518;23.712;2024-03-06T04:10:01;91932.13;;;0.70;94.73
84667;BME280;74896;42.518;23.712;2024-03-06T04:12:26;91933.50;;;0.87;93.44
84667;BME280;74896;42.518;23.712;2024-03-06T04:14:52;91928.44;;;0.94;93.21
84667;BME280;74896;42.518;23.712;2024-03-06T04:17:17;91935.56;;;0.62;93.11
84667;BME280;74896;42.518;23.712;2024-03-06T04:19:42;91942.75;;;0.38;93.86
84667;BME280;74896;42.518;23.712;2024-03-06T04:22:08;91949.78;;;0.36;93.64
84667;BME280;74896;42.518;23.712;2024-03-06T04:24:33;91948.97;;;0.35;92.53
84667;BME280;74896;42.518;23.712;2024-03-06T04:26:58;91951.91;;;0.18;93.44
84667;BME280;74896;42.518;23.712;2024-03-06T04:29:24;91953.31;;;0.06;93.42
84667;BME280;74896;42.518;23.712;2024-03-06T04:31:49;91955.78;;;-0.01;93.54
84667;BME280;74896;42.518;23.712;2024-03-06T04:34:14;91961.81;;;-0.02;95.14
84667;BME280;74896;42.518;23.712;2024-03-06T04:36:40;91961.03;;;0.12;95.41
84667;BME280;74896;42.518;23.712;2024-03-06T04:39:05;91966.22;;;0.33;95.47
84667;BME280;74896;42.518;23.712;2024-03-06T04:41:33;91967.84;;;0.55;95.88
84667;BME280;74896;42.518;23.712;2024-03-06T04:43:58;91969.97;;;0.66;96.35
84667;BME280;74896;42.518;23.712;2024-03-06T04:46:26;91964.81;;;0.81;96.90
84667;BME280;74896;42.518;23.712;2024-03-06T04:48:51;91967.88;;;0.91;96.89
84667;BME280;74896;42.518;23.712;2024-03-06T04:51:17;91970.56;;;1.04;96.72
84667;BME280;74896;42.518;23.712;2024-03-06T04:53:45;91966.97;;;1.41;95.30
84667;BME280;74896;42.518;23.712;2024-03-06T04:56:10;91972.69;;;1.43;94.61
84667;BME280;74896;42.518;23.712;2024-03-06T04:58:36;91972.81;;;1.35;94.93
84667;BME280;74896;42.518;23.712;2024-03-06T05:01:01;91978.66;;;1.29;94.54
84667;BME280;74896;42.518;23.712;2024-03-06T05:03:28;91983.75;;;1.08;94.64
84667;BME280;74896;42.518;23.712;2024-03-06T05:05:54;91979.50;;;0.94;94.38
84667;BME280;74896;42.518;23.712;2024-03-06T05:08:19;91978.56;;;0.80;94.63
84667;BME280;74896;42.518;23.712;2024-03-06T05:10:45;91983.47;;;0.82;94.68
84667;BME280;74896;42.518;23.712;2024-03-06T05:13:11;91985.09;;;0.68;95.38
84667;BME280;74896;42.518;23.712;2024-03-06T05:15:36;91989.47;;;0.74;94.96
84667;BME280;74896;42.518;23.712;2024-03-06T05:18:02;91986.50;;;0.70;94.70
84667;BME280;74896;42.518;23.712;2024-03-06T05:20:28;91986.97;;;0.59;94.99
84667;BME280;74896;42.518;23.712;2024-03-06T05:22:56;91987.56;;;0.61;95.30
84667;BME280;74896;42.518;23.712;2024-03-06T05:25:21;91996.91;;;0.90;95.58
84667;BME280;74896;42.518;23.712;2024-03-06T05:27:46;91991.78;;;1.05;95.39
84667;BME280;74896;42.518;23.712;2024-03-06T05:30:12;91997.75;;;1.33;95.73
84667;BME280;74896;42.518;23.712;2024-03-06T05:32:37;91997.63;;;1.41;96.47
84667;BME280;74896;42.518;23.712;2024-03-06T05:35:03;91995.00;;;1.56;96.38
84667;BME280;74896;42.518;23.712;2024-03-06T05:37:29;91999.31;;;1.76;95.92
84667;BME280;74896;42.518;23.712;2024-03-06T05:39:54;92000.00;;;1.91;95.43
84667;BME280;74896;42.518;23.712;2024-03-06T05:42:19;92007.06;;;2.17;95.04
84667;BME280;74896;42.518;23.712;2024-03-06T05:44:45;92004.06;;;2.41;94.94
84667;BME280;74896;42.518;23.712;2024-03-06T05:47:10;92009.72;;;2.64;94.68
84667;BME280;74896;42.518;23.712;2024-03-06T05:49:35;92007.59;;;2.81;93.75
84667;BME280;74896;42.518;23.712;2024-03-06T05:52:01;92011.22;;;3.00;93.94
84667;BME280;74896;42.518;23.712;2024-03-06T05:54:27;92009.34;;;3.21;93.75
84667;BME280;74896;42.518;23.712;2024-03-06T05:56:54;92015.28;;;3.48;94.28
84667;BME280;74896;42.518;23.712;2024-03-06T05:59:20;92019.88;;;3.66;92.58
84667;BME280;74896;42.518;23.712;2024-03-06T06:01:45;92021.81;;;3.57;88.30
84667;BME280;74896;42.518;23.712;2024-03-06T06:04:12;92022.72;;;3.23;89.75
84667;BME280;74896;42.518;23.712;2024-03-06T06:06:39;92020.50;;;3.01;92.12
84667;BME280;74896;42.518;23.712;2024-03-06T06:09:04;92018.28;;;2.91;91.28
84667;BME280;74896;42.518;23.712;2024-03-06T06:11:38;92024.16;;;2.78;91.96
84667;BME280;74896;42.518;23.712;2024-03-06T06:14:04;92025.63;;;2.60;92.42
84667;BME280;74896;42.518;23.712;2024-03-06T06:16:37;92017.41;;;2.71;92.99
84667;BME280;74896;42.518;23.712;2024-03-06T06:19:03;92025.56;;;2.88;92.30
84667;BME280;74896;42.518;23.712;2024-03-06T06:21:29;92025.25;;;3.04;91.71
84667;BME280;74896;42.518;23.712;2024-03-06T06:23:55;92025.63;;;3.07;91.52
84667;BME280;74896;42.518;23.712;2024-03-06T06:26:21;92032.97;;;3.17;90.50
84667;BME280;74896;42.518;23.712;2024-03-06T06:28:46;92021.56;;;3.32;91.01
84667;BME280;74896;42.518;23.712;2024-03-06T06:31:12;92022.97;;;3.48;91.70
84667;BME280;74896;42.518;23.712;2024-03-06T06:33:37;92029.34;;;3.59;91.89
84667;BME280;74896;42.518;23.712;2024-03-06T06:36:03;92035.69;;;3.95;89.62
84667;BME280;74896;42.518;23.712;2024-03-06T06:38:28;92037.03;;;4.24;91.20
84667;BME280;74896;42.518;23.712;2024-03-06T06:40:55;92037.81;;;4.57;90.79
84667;BME280;74896;42.518;23.712;2024-03-06T06:43:20;92033.25;;;4.66;88.34
84667;BME280;74896;42.518;23.712;2024-03-06T06:45:46;92036.34;;;4.94;87.72
84667;BME280;74896;42.518;23.712;2024-03-06T06:48:11;92032.22;;;4.86;86.34
84667;BME280;74896;42.518;23.712;2024-03-06T06:50:37;92038.06;;;5.07;86.65
84667;BME280;74896;42.518;23.712;2024-03-06T06:53:03;92039.28;;;4.97;87.09
84667;BME280;74896;42.518;23.712;2024-03-06T06:55:28;92041.34;;;4.63;88.33
84667;BME280;74896;42.518;23.712;2024-03-06T06:57:54;92037.06;;;4.37;89.90
84667;BME280;74896;42.518;23.712;2024-03-06T07:00:20;92036.25;;;4.50;91.20
84667;BME280;74896;42.518;23.712;2024-03-06T07:02:48;92031.84;;;4.70;89.10
84667;BME280;74896;42.518;23.712;2024-03-06T07:05:13;92039.72;;;4.94;87.95
84667;BME280;74896;42.518;23.712;2024-03-06T07:07:40;92036.03;;;4.64;87.12
84667;BME280;74896;42.518;23.712;2024-03-06T07:10:06;92032.47;;;4.52;86.85
84667;BME280;74896;42.518;23.712;2024-03-06T07:12:32;92036.25;;;4.43;86.71
84667;BME280;74896;42.518;23.712;2024-03-06T07:14:58;92039.22;;;4.34;89.50
84667;BME280;74896;42.518;23.712;2024-03-06T07:17:24;92043.97;;;4.30;90.58
84667;BME280;74896;42.518;23.712;2024-03-06T07:19:49;92044.50;;;4.58;89.68
84667;BME280;74896;42.518;23.712;2024-03-06T07:22:16;92037.75;;;4.77;89.05
84667;BME280;74896;42.518;23.712;2024-03-06T07:24:41;92038.28;;;5.05;89.02
84667;BME280;74896;42.518;23.712;2024-03-06T07:27:07;92043.16;;;5.26;87.70
84667;BME280;74896;42.518;23.712;2024-03-06T07:29:36;92040.13;;;5.74;87.10
84667;BME280;74896;42.518;23.712;2024-03-06T07:32:01;92040.53;;;6.08;86.53
84667;BME280;74896;42.518;23.712;2024-03-06T07:34:27;92046.19;;;6.66;84.07
84667;BME280;74896;42.518;23.712;2024-03-06T07:36:53;92046.47;;;6.58;83.65
84667;BME280;74896;42.518;23.712;2024-03-06T07:39:21;92044.69;;;6.34;81.25
84667;BME280;74896;42.518;23.712;2024-03-06T07:41:47;92044.28;;;6.37;81.91
84667;BME280;74896;42.518;23.712;2024-03-06T07:44:12;92044.00;;;5.96;83.10
84667;BME280;74896;42.518;23.712;2024-03-06T07:46:38;92046.59;;;5.83;82.68
84667;BME280;74896;42.518;23.712;2024-03-06T07:49:03;92040.88;;;5.81;85.29
84667;BME280;74896;42.518;23.712;2024-03-06T07:51:30;92044.00;;;5.96;84.64
84667;BME280;74896;42.518;23.712;2024-03-06T07:53:56;92043.31;;;6.07;85.51
84667;BME280;74896;42.518;23.712;2024-03-06T07:56:23;92045.09;;;6.06;83.81
84667;BME280;74896;42.518;23.712;2024-03-06T07:58:49;92046.22;;;6.17;84.89
84667;BME280;74896;42.518;23.712;2024-03-06T08:01:15;92048.78;;;6.42;83.53
84667;BME280;74896;42.518;23.712;2024-03-06T08:03:41;92050.34;;;6.43;83.21
84667;BME280;74896;42.518;23.712;2024-03-06T08:06:08;92048.16;;;6.46;84.78
84667;BME280;74896;42.518;23.712;2024-03-06T08:08:34;92044.72;;;6.52;81.81
84667;BME280;74896;42.518;23.712;2024-03-06T08:10:59;92049.63;;;6.35;84.40
84667;BME280;74896;42.518;23.712;2024-03-06T08:13:25;92049.06;;;6.58;84.50
84667;BME280;74896;42.518;23.712;2024-03-06T08:15:50;92053.75;;;6.61;82.34
84667;BME280;74896;42.518;23.712;2024-03-06T08:18:16;92055.66;;;6.48;84.57
84667;BME280;74896;42.518;23.712;2024-03-06T08:20:42;92050.59;;;6.59;83.73
84667;BME280;74896;42.518;23.712;2024-03-06T08:23:08;92053.19;;;6.59;83.25
84667;BME280;74896;42.518;23.712;2024-03-06T08:25:35;92055.41;;;6.56;81.96
84667;BME280;74896;42.518;23.712;2024-03-06T08:28:00;92046.00;;;6.86;82.17
84667;BME280;74896;42.518;23.712;2024-03-06T08:30:26;92050.44;;;7.33;81.03
84667;BME280;74896;42.518;23.712;2024-03-06T08:32:51;92056.66;;;7.62;77.56
84667;BME280;74896;42.518;23.712;2024-03-06T08:35:17;92049.34;;;7.59;76.02
84667;BME280;74896;42.518;23.712;2024-03-06T08:37:45;92051.78;;;7.84;76.13
84667;BME280;74896;42.518;23.712;2024-03-06T08:40:10;92051.69;;;7.90;74.39
84667;BME280;74896;42.518;23.712;2024-03-06T08:42:42;92051.69;;;7.90;74.90
84667;BME280;74896;42.518;23.712;2024-03-06T08:45:08;92055.88;;;7.91;71.08
84667;BME280;74896;42.518;23.712;2024-03-06T08:47:34;92051.16;;;8.00;73.70
84667;BME280;74896;42.518;23.712;2024-03-06T08:49:59;92056.41;;;8.23;73.30
84667;BME280;74896;42.518;23.712;2024-03-06T08:52:25;92052.69;;;8.19;74.46
84667;BME280;74896;42.518;23.712;2024-03-06T08:54:50;92054.22;;;8.26;72.15
84667;BME280;74896;42.518;23.712;2024-03-06T08:57:15;92041.09;;;8.51;72.40
84667;BME280;74896;42.518;23.712;2024-03-06T08:59:41;92040.56;;;8.72;73.75
84667;BME280;74896;42.518;23.712;2024-03-06T09:02:12;92045.72;;;8.72;72.20
84667;BME280;74896;42.518;23.712;2024-03-06T09:04:39;92044.66;;;9.19;67.96
84667;BME280;74896;42.518;23.712;2024-03-06T09:07:05;92051.78;;;9.01;66.02
84667;BME280;74896;42.518;23.712;2024-03-06T09:09:31;92051.50;;;9.26;68.35
84667;BME280;74896;42.518;23.712;2024-03-06T09:11:59;92042.47;;;8.88;66.50
84667;BME280;74896;42.518;23.712;2024-03-06T09:14:25;92049.75;;;8.91;68.21
84667;BME280;74896;42.518;23.712;2024-03-06T09:16:50;92053.78;;;9.22;67.21
84667;BME280;74896;42.518;23.712;2024-03-06T09:19:16;92049.91;;;9.48;64.93
84667;BME280;74896;42.518;23.712;2024-03-06T09:21:41;92046.44;;;9.31;65.61
84667;BME280;74896;42.518;23.712;2024-03-06T09:24:07;92050.47;;;9.38;65.69
84667;BME280;74896;42.518;23.712;2024-03-06T09:26:32;92045.28;;;9.50;63.60
84667;BME280;74896;42.518;23.712;2024-03-06T09:28:58;92055.81;;;9.71;63.38
84667;BME280;74896;42.518;23.712;2024-03-06T09:31:23;92047.75;;;9.84;61.59
84667;BME280;74896;42.518;23.712;2024-03-06T09:33:50;92046.13;;;9.95;59.37
84667;BME280;74896;42.518;23.712;2024-03-06T09:36:15;92041.69;;;9.79;61.62
84667;BME280;74896;42.518;23.712;2024-03-06T09:38:41;92044.31;;;9.96;59.98
84667;BME280;74896;42.518;23.712;2024-03-06T09:41:08;92044.63;;;9.82;60.98
84667;BME280;74896;42.518;23.712;2024-03-06T09:43:33;92042.81;;;10.11;58.00
84667;BME280;74896;42.518;23.712;2024-03-06T09:45:59;92049.34;;;10.14;61.22
84667;BME280;74896;42.518;23.712;2024-03-06T09:48:27;92047.78;;;10.13;61.59
84667;BME280;74896;42.518;23.712;2024-03-06T09:50:57;92048.78;;;10.12;59.82
84667;BME280;74896;42.518;23.712;2024-03-06T09:53:25;92051.13;;;10.58;61.17
84667;BME280;74896;42.518;23.712;2024-03-06T09:55:51;92047.25;;;10.94;58.13
84667;BME280;74896;42.518;23.712;2024-03-06T09:58:17;92041.53;;;10.75;57.59
84667;BME280;74896;42.518;23.712;2024-03-06T10:00:43;92050.22;;;11.41;57.43
84667;BME280;74896;42.518;23.712;2024-03-06T10:03:09;92047.38;;;11.42;56.01
84667;BME280;74896;42.518;23.712;2024-03-06T10:05:36;92037.72;;;11.38;55.69
84667;BME280;74896;42.518;23.712;2024-03-06T10:08:02;92043.81;;;10.55;55.49
84667;BME280;74896;42.518;23.712;2024-03-06T10:10:29;92033.06;;;10.80;53.23
84667;BME280;74896;42.518;23.712;2024-03-06T10:12:55;92038.03;;;11.03;58.51
84667;BME280;74896;42.518;23.712;2024-03-06T10:15:22;92040.25;;;10.94;54.26
84667;BME280;74896;42.518;23.712;2024-03-06T10:17:48;92030.59;;;10.90;54.44
84667;BME280;74896;42.518;23.712;2024-03-06T10:20:17;92037.13;;;10.92;56.64
84667;BME280;74896;42.518;23.712;2024-03-06T10:22:51;92032.53;;;11.38;53.25
84667;BME280;74896;42.518;23.712;2024-03-06T10:25:21;92032.00;;;11.57;52.59
84667;BME280;74896;42.518;23.712;2024-03-06T10:28:10;92025.53;;;11.38;52.41
84667;BME280;74896;42.518;23.712;2024-03-06T10:30:40;92028.88;;;11.17;52.18
84667;BME280;74896;42.518;23.712;2024-03-06T10:33:10;92021.91;;;11.39;49.84
84667;BME280;74896;42.518;23.712;2024-03-06T10:35:36;92023.72;;;11.82;52.05
84667;BME280;74896;42.518;23.712;2024-03-06T10:38:06;92019.75;;;11.53;52.85
84667;BME280;74896;42.518;23.712;2024-03-06T10:40:33;92025.25;;;11.35;52.60
84667;BME280;74896;42.518;23.712;2024-03-06T10:43:00;92024.41;;;11.51;51.68
84667;BME280;74896;42.518;23.712;2024-03-06T10:45:49;92021.84;;;11.56;51.82
84667;BME280;74896;42.518;23.712;2024-03-06T10:48:19;92021.63;;;11.57;52.11
84667;BME280;74896;42.518;23.712;2024-03-06T10:50:47;92016.22;;;11.42;52.25
84667;BME280;74896;42.518;23.712;2024-03-06T10:53:17;92012.38;;;11.23;49.27
84667;BME280;74896;42.518;23.712;2024-03-06T10:55:43;92013.75;;;11.30;49.35
84667;BME280;74896;42.518;23.712;2024-03-06T10:58:13;92010.47;;;11.78;48.46
84667;BME280;74896;42.518;23.712;2024-03-06T11:00:39;92005.66;;;11.92;45.20
84667;BME280;74896;42.518;23.712;2024-03-06T11:03:06;92000.41;;;11.65;46.59
84667;BME280;74896;42.518;23.712;2024-03-06T11:05:42;91997.31;;;12.17;50.42
84667;BME280;74896;42.518;23.712;2024-03-06T11:08:09;91997.72;;;12.04;49.56
84667;BME280;74896;42.518;23.712;2024-03-06T11:10:37;92004.09;;;11.48;52.13
84667;BME280;74896;42.518;23.712;2024-03-06T11:13:22;91994.91;;;11.40;50.78
84667;BME280;74896;42.518;23.712;2024-03-06T11:15:50;91991.91;;;11.70;52.74
84667;BME280;74896;42.518;23.712;2024-03-06T11:23:32;91987.38;;;12.09;45.28
84667;BME280;74896;42.518;23.712;2024-03-06T11:26:02;91983.69;;;12.05;47.95
84667;BME280;74896;42.518;23.712;2024-03-06T11:31:00;91977.59;;;11.46;52.62
84667;BME280;74896;42.518;23.712;2024-03-06T11:33:39;91969.78;;;11.89;49.34
84667;BME280;74896;42.518;23.712;2024-03-06T11:41:29;91974.19;;;12.15;47.73
84667;BME280;74896;42.518;23.712;2024-03-06T11:43:56;91962.72;;;11.84;46.26
84667;BME280;74896;42.518;23.712;2024-03-06T11:46:22;91960.56;;;12.35;47.75
84667;BME280;74896;42.518;23.712;2024-03-06T11:48:55;91964.22;;;12.34;45.82
84667;BME280;74896;42.518;23.712;2024-03-06T11:51:21;91966.47;;;12.25;47.72
84667;BME280;74896;42.518;23.712;2024-03-06T11:53:51;91957.63;;;11.94;48.81
84667;BME280;74896;42.518;23.712;2024-03-06T11:56:18;91960.84;;;12.07;49.58
84667;BME280;74896;42.518;23.712;2024-03-06T11:58:45;91949.84;;;11.94;46.33
84667;BME280;74896;42.518;23.712;2024-03-06T12:01:10;91952.28;;;12.38;46.46
84667;BME280;74896;42.518;23.712;2024-03-06T12:03:36;91951.91;;;12.61;44.97
84667;BME280;74896;42.518;23.712;2024-03-06T12:06:01;91957.97;;;12.03;46.22
84667;BME280;74896;42.518;23.712;2024-03-06T12:08:28;91949.63;;;11.74;46.42
84667;BME280;74896;42.518;23.712;2024-03-06T12:10:53;91947.16;;;12.16;47.74
84667;BME280;74896;42.518;23.712;2024-03-06T12:13:20;91953.16;;;12.53;44.86
84667;BME280;74896;42.518;23.712;2024-03-06T12:15:46;91941.13;;;12.42;46.67
84667;BME280;74896;42.518;23.712;2024-03-06T12:18:12;91940.34;;;12.10;46.07
84667;BME280;74896;42.518;23.712;2024-03-06T12:20:43;91936.78;;;11.89;46.56
84667;BME280;74896;42.518;23.712;2024-03-06T12:23:22;91944.50;;;11.58;46.37
84667;BME280;74896;42.518;23.712;2024-03-06T12:26:06;91935.00;;;11.42;47.78
84667;BME280;74896;42.518;23.712;2024-03-06T12:28:39;91945.69;;;11.02;47.76
84667;BME280;74896;42.518;23.712;2024-03-06T12:31:05;91937.63;;;11.03;47.46
84667;BME280;74896;42.518;23.712;2024-03-06T12:33:33;91931.59;;;11.19;48.72
84667;BME280;74896;42.518;23.712;2024-03-06T12:36:08;91932.09;;;10.95;46.03
84667;BME280;74896;42.518;23.712;2024-03-06T12:38:36;91933.47;;;10.81;48.67
84667;BME280;74896;42.518;23.712;2024-03-06T12:41:02;91937.19;;;10.68;48.10
84667;BME280;74896;42.518;23.712;2024-03-06T12:43:28;91930.25;;;10.52;46.97
84667;BME280;74896;42.518;23.712;2024-03-06T12:45:54;91933.63;;;10.36;48.23
84667;BME280;74896;42.518;23.712;2024-03-06T12:48:21;91930.34;;;10.40;47.73
84667;BME280;74896;42.518;23.712;2024-03-06T12:50:47;91929.66;;;10.50;46.70
84667;BME280;74896;42.518;23.712;2024-03-06T12:53:18;91931.25;;;10.34;47.58
84667;BME280;74896;42.518;23.712;2024-03-06T12:55:44;91922.47;;;10.52;48.48
84667;BME280;74896;42.518;23.712;2024-03-06T12:58:11;91924.00;;;11.13;47.26
84667;BME280;74896;42.518;23.712;2024-03-06T13:00:36;91930.41;;;11.54;45.51
84667;BME280;74896;42.518;23.712;2024-03-06T13:03:02;91929.44;;;11.11;46.65
84667;BME280;74896;42.518;23.712;2024-03-06T13:05:27;91934.25;;;10.81;47.53
84667;BME280;74896;42.518;23.712;2024-03-06T13:07:52;91930.94;;;11.07;48.04